sensor_id;sensor_type;location;lat;lon;timestamp;temperature;humidity
80540;DHT22;69869;48.036;15.780;2024-02-14T00:00:08;14.10;75.00
80540;DHT22;69869;48.036;15.780;2024-02-14T00:02:40;14.10;74.90
80540;DHT22;69869;48.036;15.780;2024-02-14T00:05:06;14.10;74.80
80540;DHT22;69869;48.036;15.780;2024-02-14T00:07:32;14.10;74.60
80540;DHT22;69869;48.036;15.780;2024-02-14T00:09:58;14.10;74.90
80540;DHT22;69869;48.036;15.780;2024-02-14T00:12:23;14.10;75.00
80540;DHT22;69869;48.036;15.780;2024-02-14T00:14:50;14.10;75.10
80540;DHT22;69869;48.036;15.780;2024-02-14T00:17:16;14.10;74.80
80540;DHT22;69869;48.036;15.780;2024-02-14T00:19:41;14.10;74.90
80540;DHT22;69869;48.036;15.780;2024-02-14T00:22:07;14.10;75.00
80540;DHT22;69869;48.036;15.780;2024-02-14T00:24:32;14.10;74.60
80540;DHT22;69869;48.036;15.780;2024-02-14T00:26:59;14.10;74.70
80540;DHT22;69869;48.036;15.780;2024-02-14T00:29:26;14.10;74.80
80540;DHT22;69869;48.036;15.780;2024-02-14T00:31:52;14.10;74.60
80540;DHT22;69869;48.036;15.780;2024-02-14T00:34:17;14.10;74.70
80540;DHT22;69869;48.036;15.780;2024-02-14T00:36:43;14.10;74.80
80540;DHT22;69869;48.036;15.780;2024-02-14T00:39:08;14.10;74.70
80540;DHT22;69869;48.036;15.780;2024-02-14T00:41:35;14.10;75.00
80540;DHT22;69869;48.036;15.780;2024-02-14T00:44:01;14.10;75.10
80540;DHT22;69869;48.036;15.780;2024-02-14T00:46:28;14.10;74.90
80540;DHT22;69869;48.036;15.780;2024-02-14T00:48:54;14.10;74.90
80540;DHT22;69869;48.036;15.780;2024-02-14T00:51:21;14.10;74.80
80540;DHT22;69869;48.036;15.780;2024-02-14T00:53:47;14.10;74.90
80540;DHT22;69869;48.036;15.780;2024-02-14T00:56:12;14.10;75.00
80540;DHT22;69869;48.036;15.780;2024-02-14T00:58:38;14.10;75.10
80540;DHT22;69869;48.036;15.780;2024-02-14T01:01:04;14.10;75.00
80540;DHT22;69869;48.036;15.780;2024-02-14T01:03:31;14.10;74.80
80540;DHT22;69869;48.036;15.780;2024-02-14T01:05:56;14.10;75.10
80540;DHT22;69869;48.036;15.780;2024-02-14T01:08:22;14.10;74.80
80540;DHT22;69869;48.036;15.780;2024-02-14T01:10:48;14.10;75.00
80540;DHT22;69869;48.036;15.780;2024-02-14T01:13:16;14.10;74.70
80540;DHT22;69869;48.036;15.780;2024-02-14T01:15:41;14.10;74.90
80540;DHT22;69869;48.036;15.780;2024-02-14T01:18:07;14.10;74.80
80540;DHT22;69869;48.036;15.780;2024-02-14T01:20:32;14.10;74.90
80540;DHT22;69869;48.036;15.780;2024-02-14T01:22:58;14.10;75.00
80540;DHT22;69869;48.036;15.780;2024-02-14T01:25:26;14.10;74.80
80540;DHT22;69869;48.036;15.780;2024-02-14T01:27:51;14.10;74.80
80540;DHT22;69869;48.036;15.780;2024-02-14T01:30:18;14.10;74.70
80540;DHT22;69869;48.036;15.780;2024-02-14T01:32:44;14.10;74.80
80540;DHT22;69869;48.036;15.780;2024-02-14T01:35:10;14.10;74.80
80540;DHT22;69869;48.036;15.780;2024-02-14T01:37:36;14.00;75.00
80540;DHT22;69869;48.036;15.780;2024-02-14T01:40:01;14.10;74.70
80540;DHT22;69869;48.036;15.780;2024-02-14T01:42:27;14.10;74.60
80540;DHT22;69869;48.036;15.780;2024-02-14T01:44:53;14.10;74.90
80540;DHT22;69869;48.036;15.780;2024-02-14T01:47:22;14.10;74.70
80540;DHT22;69869;48.036;15.780;2024-02-14T01:49:48;14.10;74.90
80540;DHT22;69869;48.036;15.780;2024-02-14T01:52:14;14.10;74.80
80540;DHT22;69869;48.036;15.780;2024-02-14T01:54:40;14.10;74.90
80540;DHT22;69869;48.036;15.780;2024-02-14T01:57:08;14.10;74.90
80540;DHT22;69869;48.036;15.780;2024-02-14T01:59:34;14.00;74.50
80540;DHT22;69869;48.036;15.780;2024-02-14T02:02:00;14.10;74.80
80540;DHT22;69869;48.036;15.780;2024-02-14T02:04:27;14.10;74.60
80540;DHT22;69869;48.036;15.780;2024-02-14T02:06:53;14.10;74.90
80540;DHT22;69869;48.036;15.780;2024-02-14T02:09:22;14.10;74.90
80540;DHT22;69869;48.036;15.780;2024-02-14T02:11:49;14.10;74.90
80540;DHT22;69869;48.036;15.780;2024-02-14T02:14:15;14.10;74.90
80540;DHT22;69869;48.036;15.780;2024-02-14T02:16:41;14.10;74.80
80540;DHT22;69869;48.036;15.780;2024-02-14T02:19:07;14.10;74.80
80540;DHT22;69869;48.036;15.780;2024-02-14T02:21:35;14.10;74.70
80540;DHT22;69869;48.036;15.780;2024-02-14T02:24:04;14.10;74.80
80540;DHT22;69869;48.036;15.780;2024-02-14T02:26:30;14.10;74.80
80540;DHT22;69869;48.036;15.780;2024-02-14T02:28:56;14.10;74.50
80540;DHT22;69869;48.036;15.780;2024-02-14T02:31:22;14.00;74.60
80540;DHT22;69869;48.036;15.780;2024-02-14T02:33:48;14.00;74.70
80540;DHT22;69869;48.036;15.780;2024-02-14T02:36:14;14.10;74.80
80540;DHT22;69869;48.036;15.780;2024-02-14T02:38:41;14.10;74.80
80540;DHT22;69869;48.036;15.780;2024-02-14T02:41:07;14.10;74.80
80540;DHT22;69869;48.036;15.780;2024-02-14T02:43:33;14.10;74.70
80540;DHT22;69869;48.036;15.780;2024-02-14T02:45:59;14.00;74.70
80540;DHT22;69869;48.036;15.780;2024-02-14T02:48:24;14.00;74.60
80540;DHT22;69869;48.036;15.780;2024-02-14T02:50:50;14.00;74.60
80540;DHT22;69869;48.036;15.780;2024-02-14T02:53:17;14.10;74.70
80540;DHT22;69869;48.036;15.780;2024-02-14T02:55:42;14.00;74.70
80540;DHT22;69869;48.036;15.780;2024-02-14T02:58:09;14.00;74.70
80540;DHT22;69869;48.036;15.780;2024-02-14T03:00:34;14.00;74.70
80540;DHT22;69869;48.036;15.780;2024-02-14T03:03:00;14.00;74.60
80540;DHT22;69869;48.036;15.780;2024-02-14T03:05:28;14.00;74.70
80540;DHT22;69869;48.036;15.780;2024-02-14T03:07:54;14.00;74.60
80540;DHT22;69869;48.036;15.780;2024-02-14T03:10:22;14.00;74.60
80540;DHT22;69869;48.036;15.780;2024-02-14T03:12:48;14.00;74.60
80540;DHT22;69869;48.036;15.780;2024-02-14T03:15:15;14.00;74.60
80540;DHT22;69869;48.036;15.780;2024-02-14T03:17:40;14.10;74.70
80540;DHT22;69869;48.036;15.780;2024-02-14T03:20:08;14.00;74.70
80540;DHT22;69869;48.036;15.780;2024-02-14T03:22:39;14.00;74.70
80540;DHT22;69869;48.036;15.780;2024-02-14T03:25:09;14.00;74.70
80540;DHT22;69869;48.036;15.780;2024-02-14T03:27:35;14.00;74.50
80540;DHT22;69869;48.036;15.780;2024-02-14T03:30:00;14.00;74.70
80540;DHT22;69869;48.036;15.780;2024-02-14T03:32:28;14.00;74.60
80540;DHT22;69869;48.036;15.780;2024-02-14T03:34:54;14.00;74.60
80540;DHT22;69869;48.036;15.780;2024-02-14T03:37:19;14.00;74.60
80540;DHT22;69869;48.036;15.780;2024-02-14T03:39:45;14.00;74.60
80540;DHT22;69869;48.036;15.780;2024-02-14T03:42:11;14.00;74.60
80540;DHT22;69869;48.036;15.780;2024-02-14T03:44:36;14.00;74.60
80540;DHT22;69869;48.036;15.780;2024-02-14T03:47:03;14.00;74.60
80540;DHT22;69869;48.036;15.780;2024-02-14T03:49:29;14.00;74.30
80540;DHT22;69869;48.036;15.780;2024-02-14T03:51:56;14.00;74.60
80540;DHT22;69869;48.036;15.780;2024-02-14T03:54:22;14.00;74.60
80540;DHT22;69869;48.036;15.780;2024-02-14T03:56:48;14.00;74.60
80540;DHT22;69869;48.036;15.780;2024-02-14T03:59:14;14.00;74.60
80540;DHT22;69869;48.036;15.780;2024-02-14T04:01:46;14.00;75.20
80540;DHT22;69869;48.036;15.780;2024-02-14T04:04:12;14.00;74.50
80540;DHT22;69869;48.036;15.780;2024-02-14T04:06:38;14.00;74.60
80540;DHT22;69869;48.036;15.780;2024-02-14T04:09:03;14.00;74.60
80540;DHT22;69869;48.036;15.780;2024-02-14T04:11:29;14.00;74.50
80540;DHT22;69869;48.036;15.780;2024-02-14T04:13:55;14.00;74.40
80540;DHT22;69869;48.036;15.780;2024-02-14T04:16:21;14.00;74.40
80540;DHT22;69869;48.036;15.780;2024-02-14T04:18:47;14.00;74.30
80540;DHT22;69869;48.036;15.780;2024-02-14T04:21:12;14.00;74.40
80540;DHT22;69869;48.036;15.780;2024-02-14T04:23:38;14.00;74.40
80540;DHT22;69869;48.036;15.780;2024-02-14T04:26:05;14.00;74.40
80540;DHT22;69869;48.036;15.780;2024-02-14T04:28:31;14.00;74.40
80540;DHT22;69869;48.036;15.780;2024-02-14T04:30:57;14.00;74.30
80540;DHT22;69869;48.036;15.780;2024-02-14T04:33:23;14.00;74.30
80540;DHT22;69869;48.036;15.780;2024-02-14T04:35:49;14.00;74.30
80540;DHT22;69869;48.036;15.780;2024-02-14T04:38:15;14.00;74.40
80540;DHT22;69869;48.036;15.780;2024-02-14T04:40:43;14.00;74.30
80540;DHT22;69869;48.036;15.780;2024-02-14T04:43:09;14.00;74.30
80540;DHT22;69869;48.036;15.780;2024-02-14T04:45:35;14.00;74.30
80540;DHT22;69869;48.036;15.780;2024-02-14T04:48:01;14.00;74.80
80540;DHT22;69869;48.036;15.780;2024-02-14T04:50:27;14.00;73.90
80540;DHT22;69869;48.036;15.780;2024-02-14T04:52:52;14.00;74.20
80540;DHT22;69869;48.036;15.780;2024-02-14T04:55:18;14.00;74.10
80540;DHT22;69869;48.036;15.780;2024-02-14T04:57:44;14.00;74.20
80540;DHT22;69869;48.036;15.780;2024-02-14T05:00:10;14.00;73.60
80540;DHT22;69869;48.036;15.780;2024-02-14T05:02:36;14.00;74.80
80540;DHT22;69869;48.036;15.780;2024-02-14T05:05:02;14.00;73.90
80540;DHT22;69869;48.036;15.780;2024-02-14T05:07:28;14.00;73.70
80540;DHT22;69869;48.036;15.780;2024-02-14T05:09:54;14.00;74.00
80540;DHT22;69869;48.036;15.780;2024-02-14T05:12:22;13.90;73.70
80540;DHT22;69869;48.036;15.780;2024-02-14T05:14:47;13.90;73.80
80540;DHT22;69869;48.036;15.780;2024-02-14T05:17:14;14.00;73.80
80540;DHT22;69869;48.036;15.780;2024-02-14T05:19:42;14.00;73.90
80540;DHT22;69869;48.036;15.780;2024-02-14T05:22:08;14.00;73.50
80540;DHT22;69869;48.036;15.780;2024-02-14T05:24:34;14.00;73.60
80540;DHT22;69869;48.036;15.780;2024-02-14T05:27:01;14.00;73.50
80540;DHT22;69869;48.036;15.780;2024-02-14T05:29:27;14.00;73.00
80540;DHT22;69869;48.036;15.780;2024-02-14T05:31:52;14.00;73.10
80540;DHT22;69869;48.036;15.780;2024-02-14T05:34:21;13.90;73.50
80540;DHT22;69869;48.036;15.780;2024-02-14T05:36:46;13.90;73.00
80540;DHT22;69869;48.036;15.780;2024-02-14T05:39:13;13.90;73.10
80540;DHT22;69869;48.036;15.780;2024-02-14T05:41:39;14.00;73.80
80540;DHT22;69869;48.036;15.780;2024-02-14T05:44:05;13.90;73.60
80540;DHT22;69869;48.036;15.780;2024-02-14T05:46:31;13.90;73.70
80540;DHT22;69869;48.036;15.780;2024-02-14T05:48:57;13.90;73.50
80540;DHT22;69869;48.036;15.780;2024-02-14T05:51:23;13.90;73.40
80540;DHT22;69869;48.036;15.780;2024-02-14T05:53:49;13.90;72.80
80540;DHT22;69869;48.036;15.780;2024-02-14T05:56:14;13.90;73.00
80540;DHT22;69869;48.036;15.780;2024-02-14T05:58:40;14.00;73.50
80540;DHT22;69869;48.036;15.780;2024-02-14T06:01:06;14.00;73.30
80540;DHT22;69869;48.036;15.780;2024-02-14T06:03:32;14.00;73.60
80540;DHT22;69869;48.036;15.780;2024-02-14T06:05:57;13.90;73.20
80540;DHT22;69869;48.036;15.780;2024-02-14T06:08:23;13.90;72.90
80540;DHT22;69869;48.036;15.780;2024-02-14T06:10:49;14.00;73.60
80540;DHT22;69869;48.036;15.780;2024-02-14T06:13:15;13.90;73.00
80540;DHT22;69869;48.036;15.780;2024-02-14T06:15:41;14.00;73.40
80540;DHT22;69869;48.036;15.780;2024-02-14T06:18:06;13.90;73.10
80540;DHT22;69869;48.036;15.780;2024-02-14T06:20:32;14.00;72.80
80540;DHT22;69869;48.036;15.780;2024-02-14T06:22:58;14.00;73.40
80540;DHT22;69869;48.036;15.780;2024-02-14T06:25:23;14.00;73.10
80540;DHT22;69869;48.036;15.780;2024-02-14T06:27:49;13.90;73.40
80540;DHT22;69869;48.036;15.780;2024-02-14T06:30:15;13.90;73.00
80540;DHT22;69869;48.036;15.780;2024-02-14T06:32:42;13.90;72.80
80540;DHT22;69869;48.036;15.780;2024-02-14T06:35:08;13.90;72.60
80540;DHT22;69869;48.036;15.780;2024-02-14T06:37:33;14.00;73.00
80540;DHT22;69869;48.036;15.780;2024-02-14T06:39:59;13.90;73.00
80540;DHT22;69869;48.036;15.780;2024-02-14T06:42:25;13.90;73.10
80540;DHT22;69869;48.036;15.780;2024-02-14T06:44:51;13.90;72.60
80540;DHT22;69869;48.036;15.780;2024-02-14T06:47:17;13.90;72.80
80540;DHT22;69869;48.036;15.780;2024-02-14T06:49:43;13.90;72.80
80540;DHT22;69869;48.036;15.780;2024-02-14T06:52:09;13.90;72.80
80540;DHT22;69869;48.036;15.780;2024-02-14T06:54:35;13.90;72.80
80540;DHT22;69869;48.036;15.780;2024-02-14T06:57:00;13.90;72.60
80540;DHT22;69869;48.036;15.780;2024-02-14T06:59:26;13.90;73.00
80540;DHT22;69869;48.036;15.780;2024-02-14T07:01:52;13.90;72.80
80540;DHT22;69869;48.036;15.780;2024-02-14T07:04:21;13.90;72.50
80540;DHT22;69869;48.036;15.780;2024-02-14T07:06:54;13.90;72.50
80540;DHT22;69869;48.036;15.780;2024-02-14T07:09:19;13.90;73.00
80540;DHT22;69869;48.036;15.780;2024-02-14T07:11:45;13.90;72.60
80540;DHT22;69869;48.036;15.780;2024-02-14T07:14:11;13.90;72.20
80540;DHT22;69869;48.036;15.780;2024-02-14T07:16:37;13.90;72.60
80540;DHT22;69869;48.036;15.780;2024-02-14T07:19:03;13.90;72.60
80540;DHT22;69869;48.036;15.780;2024-02-14T07:21:28;13.90;72.30
80540;DHT22;69869;48.036;15.780;2024-02-14T07:23:54;13.90;72.40
80540;DHT22;69869;48.036;15.780;2024-02-14T07:26:19;13.90;72.80
80540;DHT22;69869;48.036;15.780;2024-02-14T07:28:45;13.90;72.10
80540;DHT22;69869;48.036;15.780;2024-02-14T07:31:11;13.90;72.40
80540;DHT22;69869;48.036;15.780;2024-02-14T07:33:37;13.90;72.30
80540;DHT22;69869;48.036;15.780;2024-02-14T07:36:03;13.90;72.30
80540;DHT22;69869;48.036;15.780;2024-02-14T07:38:28;13.90;72.10
80540;DHT22;69869;48.036;15.780;2024-02-14T07:40:54;13.90;72.00
80540;DHT22;69869;48.036;15.780;2024-02-14T07:43:19;13.90;72.10
80540;DHT22;69869;48.036;15.780;2024-02-14T07:45:45;13.90;72.40
80540;DHT22;69869;48.036;15.780;2024-02-14T07:48:11;13.90;72.10
80540;DHT22;69869;48.036;15.780;2024-02-14T07:50:36;13.90;72.30
80540;DHT22;69869;48.036;15.780;2024-02-14T07:53:02;13.90;73.00
80540;DHT22;69869;48.036;15.780;2024-02-14T07:55:28;13.90;72.30
80540;DHT22;69869;48.036;15.780;2024-02-14T07:57:54;14.00;72.20
80540;DHT22;69869;48.036;15.780;2024-02-14T08:00:20;13.90;72.30
80540;DHT22;69869;48.036;15.780;2024-02-14T08:02:51;14.00;72.20
80540;DHT22;69869;48.036;15.780;2024-02-14T08:05:17;13.90;72.10
80540;DHT22;69869;48.036;15.780;2024-02-14T08:07:45;13.90;72.50
80540;DHT22;69869;48.036;15.780;2024-02-14T08:10:11;13.90;72.60
80540;DHT22;69869;48.036;15.780;2024-02-14T08:12:37;13.90;72.50
80540;DHT22;69869;48.036;15.780;2024-02-14T08:15:03;13.90;72.80
80540;DHT22;69869;48.036;15.780;2024-02-14T08:17:31;13.90;72.50
80540;DHT22;69869;48.036;15.780;2024-02-14T08:19:57;13.90;72.50
80540;DHT22;69869;48.036;15.780;2024-02-14T08:22:22;13.90;72.40
80540;DHT22;69869;48.036;15.780;2024-02-14T08:24:48;13.90;72.20
80540;DHT22;69869;48.036;15.780;2024-02-14T08:27:14;13.90;72.60
80540;DHT22;69869;48.036;15.780;2024-02-14T08:29:40;13.90;72.60
80540;DHT22;69869;48.036;15.780;2024-02-14T08:32:06;13.90;72.70
80540;DHT22;69869;48.036;15.780;2024-02-14T08:34:31;13.90;72.90
80540;DHT22;69869;48.036;15.780;2024-02-14T08:36:57;13.90;72.50
80540;DHT22;69869;48.036;15.780;2024-02-14T08:39:23;13.90;72.50
80540;DHT22;69869;48.036;15.780;2024-02-14T08:41:49;13.90;72.50
80540;DHT22;69869;48.036;15.780;2024-02-14T08:44:15;13.90;72.10
80540;DHT22;69869;48.036;15.780;2024-02-14T08:46:41;13.90;72.60
80540;DHT22;69869;48.036;15.780;2024-02-14T08:49:10;13.90;72.20
80540;DHT22;69869;48.036;15.780;2024-02-14T08:51:35;13.90;72.20
80540;DHT22;69869;48.036;15.780;2024-02-14T08:54:02;13.90;72.90
80540;DHT22;69869;48.036;15.780;2024-02-14T08:56:31;13.90;72.30
80540;DHT22;69869;48.036;15.780;2024-02-14T08:59:02;13.90;72.60
80540;DHT22;69869;48.036;15.780;2024-02-14T09:01:29;13.90;72.70
80540;DHT22;69869;48.036;15.780;2024-02-14T09:03:55;13.90;72.50
80540;DHT22;69869;48.036;15.780;2024-02-14T09:06:21;13.90;72.10
80540;DHT22;69869;48.036;15.780;2024-02-14T09:08:46;13.90;72.00
80540;DHT22;69869;48.036;15.780;2024-02-14T09:11:12;13.90;72.10
80540;DHT22;69869;48.036;15.780;2024-02-14T09:13:38;13.90;72.10
80540;DHT22;69869;48.036;15.780;2024-02-14T09:16:07;13.90;72.10
80540;DHT22;69869;48.036;15.780;2024-02-14T09:18:33;13.90;72.30
80540;DHT22;69869;48.036;15.780;2024-02-14T09:20:59;13.90;72.60
80540;DHT22;69869;48.036;15.780;2024-02-14T09:23:25;13.90;72.10
80540;DHT22;69869;48.036;15.780;2024-02-14T09:25:50;13.90;71.90
80540;DHT22;69869;48.036;15.780;2024-02-14T09:28:16;13.90;71.80
80540;DHT22;69869;48.036;15.780;2024-02-14T09:30:42;13.90;71.80
80540;DHT22;69869;48.036;15.780;2024-02-14T09:33:08;13.90;71.70
80540;DHT22;69869;48.036;15.780;2024-02-14T09:35:34;13.90;71.80
80540;DHT22;69869;48.036;15.780;2024-02-14T09:38:01;13.90;71.90
80540;DHT22;69869;48.036;15.780;2024-02-14T09:40:26;13.90;72.00
80540;DHT22;69869;48.036;15.780;2024-02-14T09:42:56;13.90;72.00
80540;DHT22;69869;48.036;15.780;2024-02-14T09:45:26;13.90;71.70
80540;DHT22;69869;48.036;15.780;2024-02-14T09:47:53;13.90;71.80
80540;DHT22;69869;48.036;15.780;2024-02-14T09:50:20;13.90;71.60
80540;DHT22;69869;48.036;15.780;2024-02-14T09:52:49;13.90;72.00
80540;DHT22;69869;48.036;15.780;2024-02-14T09:55:16;13.90;71.60
80540;DHT22;69869;48.036;15.780;2024-02-14T09:57:43;13.90;71.60
80540;DHT22;69869;48.036;15.780;2024-02-14T10:00:12;13.90;71.80
80540;DHT22;69869;48.036;15.780;2024-02-14T10:02:41;13.90;72.00
80540;DHT22;69869;48.036;15.780;2024-02-14T10:05:07;13.90;72.00
80540;DHT22;69869;48.036;15.780;2024-02-14T10:07:43;13.90;72.00
80540;DHT22;69869;48.036;15.780;2024-02-14T10:10:10;13.90;71.70
80540;DHT22;69869;48.036;15.780;2024-02-14T10:12:36;13.90;71.80
80540;DHT22;69869;48.036;15.780;2024-02-14T10:15:02;13.90;71.60
80540;DHT22;69869;48.036;15.780;2024-02-14T10:17:27;13.90;71.60
80540;DHT22;69869;48.036;15.780;2024-02-14T10:20:02;13.90;71.60
80540;DHT22;69869;48.036;15.780;2024-02-14T10:22:37;13.90;71.60
80540;DHT22;69869;48.036;15.780;2024-02-14T10:25:05;13.90;71.40
80540;DHT22;69869;48.036;15.780;2024-02-14T10:27:38;13.90;71.50
80540;DHT22;69869;48.036;15.780;2024-02-14T10:30:07;13.90;71.50
80540;DHT22;69869;48.036;15.780;2024-02-14T10:32:42;13.90;71.60
80540;DHT22;69869;48.036;15.780;2024-02-14T10:35:13;13.90;71.60
80540;DHT22;69869;48.036;15.780;2024-02-14T10:37:39;13.90;71.60
80540;DHT22;69869;48.036;15.780;2024-02-14T10:40:05;13.90;71.60
80540;DHT22;69869;48.036;15.780;2024-02-14T10:42:32;13.90;71.60
80540;DHT22;69869;48.036;15.780;2024-02-14T10:44:58;13.90;71.50
80540;DHT22;69869;48.036;15.780;2024-02-14T10:47:31;13.90;71.60
80540;DHT22;69869;48.036;15.780;2024-02-14T10:50:01;13.90;72.00
80540;DHT22;69869;48.036;15.780;2024-02-14T10:52:33;13.90;71.80
80540;DHT22;69869;48.036;15.780;2024-02-14T10:55:02;13.90;71.70
80540;DHT22;69869;48.036;15.780;2024-02-14T10:57:29;13.90;71.70
80540;DHT22;69869;48.036;15.780;2024-02-14T10:59:56;13.90;71.50
80540;DHT22;69869;48.036;15.780;2024-02-14T11:02:23;13.90;71.60
80540;DHT22;69869;48.036;15.780;2024-02-14T11:04:49;13.90;71.60
80540;DHT22;69869;48.036;15.780;2024-02-14T11:07:20;13.90;71.50
80540;DHT22;69869;48.036;15.780;2024-02-14T11:09:46;14.00;71.60
80540;DHT22;69869;48.036;15.780;2024-02-14T11:12:12;13.90;71.40
80540;DHT22;69869;48.036;15.780;2024-02-14T11:14:37;13.90;71.50
80540;DHT22;69869;48.036;15.780;2024-02-14T11:17:10;13.90;71.60
80540;DHT22;69869;48.036;15.780;2024-02-14T11:19:36;13.90;71.50
80540;DHT22;69869;48.036;15.780;2024-02-14T11:22:12;13.90;71.60
80540;DHT22;69869;48.036;15.780;2024-02-14T11:24:38;13.90;72.00
80540;DHT22;69869;48.036;15.780;2024-02-14T11:27:12;13.90;71.80
80540;DHT22;69869;48.036;15.780;2024-02-14T11:29:51;13.90;71.80
80540;DHT22;69869;48.036;15.780;2024-02-14T11:32:17;13.90;71.60
80540;DHT22;69869;48.036;15.780;2024-02-14T11:34:43;13.90;71.70
80540;DHT22;69869;48.036;15.780;2024-02-14T11:37:19;13.90;71.60
80540;DHT22;69869;48.036;15.780;2024-02-14T11:39:46;13.90;71.90
80540;DHT22;69869;48.036;15.780;2024-02-14T11:42:12;13.90;71.80
80540;DHT22;69869;48.036;15.780;2024-02-14T11:44:40;13.90;72.00
80540;DHT22;69869;48.036;15.780;2024-02-14T11:47:09;13.90;71.70
80540;DHT22;69869;48.036;15.780;2024-02-14T11:49:36;13.90;71.80
80540;DHT22;69869;48.036;15.780;2024-02-14T11:52:01;13.90;71.90
80540;DHT22;69869;48.036;15.780;2024-02-14T11:54:29;13.90;72.00
80540;DHT22;69869;48.036;15.780;2024-02-14T11:56:56;13.90;72.00
80540;DHT22;69869;48.036;15.780;2024-02-14T11:59:22;13.90;72.00
80540;DHT22;69869;48.036;15.780;2024-02-14T12:01:48;13.90;72.00
80540;DHT22;69869;48.036;15.780;2024-02-14T12:04:17;13.90;72.10
80540;DHT22;69869;48.036;15.780;2024-02-14T12:06:43;13.90;72.00
80540;DHT22;69869;48.036;15.780;2024-02-14T12:09:09;13.90;72.00
80540;DHT22;69869;48.036;15.780;2024-02-14T12:11:39;13.90;72.10
80540;DHT22;69869;48.036;15.780;2024-02-14T12:14:09;13.90;72.00
80540;DHT22;69869;48.036;15.780;2024-02-14T12:16:38;13.90;72.00
80540;DHT22;69869;48.036;15.780;2024-02-14T12:19:16;13.90;72.00
80540;DHT22;69869;48.036;15.780;2024-02-14T12:21:42;13.90;72.10
80540;DHT22;69869;48.036;15.780;2024-02-14T12:24:11;13.90;72.20
80540;DHT22;69869;48.036;15.780;2024-02-14T12:26:40;13.90;72.00
80540;DHT22;69869;48.036;15.780;2024-02-14T12:29:07;13.90;72.40
80540;DHT22;69869;48.036;15.780;2024-02-14T12:31:34;13.90;72.40
80540;DHT22;69869;48.036;15.780;2024-02-14T12:34:02;13.90;72.40
80540;DHT22;69869;48.036;15.780;2024-02-14T12:36:28;13.90;73.00
80540;DHT22;69869;48.036;15.780;2024-02-14T12:38:57;13.90;72.60
80540;DHT22;69869;48.036;15.780;2024-02-14T12:41:23;13.90;72.40
80540;DHT22;69869;48.036;15.780;2024-02-14T12:43:51;13.90;72.50
80540;DHT22;69869;48.036;15.780;2024-02-14T12:46:17;13.90;72.40
80540;DHT22;69869;48.036;15.780;2024-02-14T12:48:43;13.90;72.40
80540;DHT22;69869;48.036;15.780;2024-02-14T12:51:10;13.90;72.30
80540;DHT22;69869;48.036;15.780;2024-02-14T12:53:35;13.90;72.40
80540;DHT22;69869;48.036;15.780;2024-02-14T12:56:01;13.90;72.50
80540;DHT22;69869;48.036;15.780;2024-02-14T12:58:27;13.90;72.60
80540;DHT22;69869;48.036;15.780;2024-02-14T13:00:53;13.90;72.50
80540;DHT22;69869;48.036;15.780;2024-02-14T13:03:19;13.90;72.60
80540;DHT22;69869;48.036;15.780;2024-02-14T13:05:45;14.00;72.60
80540;DHT22;69869;48.036;15.780;2024-02-14T13:08:12;13.90;72.70
80540;DHT22;69869;48.036;15.780;2024-02-14T13:10:38;13.90;72.60
80540;DHT22;69869;48.036;15.780;2024-02-14T13:13:04;13.90;72.50
80540;DHT22;69869;48.036;15.780;2024-02-14T13:15:30;13.90;72.50
80540;DHT22;69869;48.036;15.780;2024-02-14T13:17:56;13.90;72.50
80540;DHT22;69869;48.036;15.780;2024-02-14T13:20:24;14.00;72.70
80540;DHT22;69869;48.036;15.780;2024-02-14T13:22:50;13.90;72.70
80540;DHT22;69869;48.036;15.780;2024-02-14T13:25:15;13.90;72.70
80540;DHT22;69869;48.036;15.780;2024-02-14T13:27:43;13.90;72.60
80540;DHT22;69869;48.036;15.780;2024-02-14T13:30:09;13.90;72.60
80540;DHT22;69869;48.036;15.780;2024-02-14T13:32:35;13.90;72.80
80540;DHT22;69869;48.036;15.780;2024-02-14T13:35:01;13.90;72.80
80540;DHT22;69869;48.036;15.780;2024-02-14T13:37:27;13.90;72.60
80540;DHT22;69869;48.036;15.780;2024-02-14T13:39:52;13.90;72.70
80540;DHT22;69869;48.036;15.780;2024-02-14T13:42:18;13.90;72.80
80540;DHT22;69869;48.036;15.780;2024-02-14T13:44:47;13.90;72.80
80540;DHT22;69869;48.036;15.780;2024-02-14T13:47:12;13.90;72.90
80540;DHT22;69869;48.036;15.780;2024-02-14T13:49:38;13.90;72.90
80540;DHT22;69869;48.036;15.780;2024-02-14T13:52:04;13.90;73.00
80540;DHT22;69869;48.036;15.780;2024-02-14T13:54:29;13.90;72.80
80540;DHT22;69869;48.036;15.780;2024-02-14T13:56:55;13.90;72.70
80540;DHT22;69869;48.036;15.780;2024-02-14T13:59:21;13.90;72.90
80540;DHT22;69869;48.036;15.780;2024-02-14T14:01:47;13.90;72.80
80540;DHT22;69869;48.036;15.780;2024-02-14T14:04:13;13.90;72.90
80540;DHT22;69869;48.036;15.780;2024-02-14T14:06:39;13.90;72.80
80540;DHT22;69869;48.036;15.780;2024-02-14T14:09:05;13.90;72.80
80540;DHT22;69869;48.036;15.780;2024-02-14T14:11:34;13.90;72.80
80540;DHT22;69869;48.036;15.780;2024-02-14T14:13:59;13.90;72.70
80540;DHT22;69869;48.036;15.780;2024-02-14T14:16:25;13.90;72.90
80540;DHT22;69869;48.036;15.780;2024-02-14T14:18:51;13.90;72.90
80540;DHT22;69869;48.036;15.780;2024-02-14T14:21:17;13.90;72.70
80540;DHT22;69869;48.036;15.780;2024-02-14T14:23:43;13.90;72.70
80540;DHT22;69869;48.036;15.780;2024-02-14T14:26:09;13.90;72.60
80540;DHT22;69869;48.036;15.780;2024-02-14T14:28:35;13.90;72.70
80540;DHT22;69869;48.036;15.780;2024-02-14T14:31:01;13.90;72.70
80540;DHT22;69869;48.036;15.780;2024-02-14T14:33:28;13.90;72.60
80540;DHT22;69869;48.036;15.780;2024-02-14T14:35:53;13.90;72.50
80540;DHT22;69869;48.036;15.780;2024-02-14T14:38:22;13.90;72.60
80540;DHT22;69869;48.036;15.780;2024-02-14T14:40:49;13.90;72.50
80540;DHT22;69869;48.036;15.780;2024-02-14T14:43:15;13.90;72.60
80540;DHT22;69869;48.036;15.780;2024-02-14T14:45:44;13.90;72.80
80540;DHT22;69869;48.036;15.780;2024-02-14T14:48:10;13.90;72.60
80540;DHT22;69869;48.036;15.780;2024-02-14T14:50:36;13.90;72.70
80540;DHT22;69869;48.036;15.780;2024-02-14T14:53:02;13.90;72.50
80540;DHT22;69869;48.036;15.780;2024-02-14T14:55:54;13.90;72.60
80540;DHT22;69869;48.036;15.780;2024-02-14T14:58:24;13.90;72.60
80540;DHT22;69869;48.036;15.780;2024-02-14T15:00:55;13.90;72.70
80540;DHT22;69869;48.036;15.780;2024-02-14T15:03:25;13.90;72.70
80540;DHT22;69869;48.036;15.780;2024-02-14T15:05:51;13.90;72.70
80540;DHT22;69869;48.036;15.780;2024-02-14T15:08:17;13.90;72.90
80540;DHT22;69869;48.036;15.780;2024-02-14T15:10:48;13.90;72.80